Milton, Georgia
Current Conditions -  °F | °C
As of 7:35 AM on Monday 24 Nov 2014 (Local Time) from KCNI Reporting Station
Overcast Overcast  
Wind Chill: 59°   Ceiling: 800
Heat Index: 59°   Visibility: 7mi
Dew Point: 55°   Wind: 0mph
Humidity: 88%   Direction: NA
Pressure: 29.78"   Gusts: NA
Location:  34.13°N, 84.3°W
Report Text: KCNI 241235Z AUTO 00000KT 7SM BKN008 BKN012 OVC020 15/13 A2978 RMK AO2
Loading
Personal Weather Stations






























Interactive Weather Map New forecast layout! Learn more

10-Day Weather Forecast

Advertisements
Track Severe Weather on mobile